createdAt,value
2018-08-06T00:00:10.226Z,19.40
2018-08-06T00:02:38.814Z,19.30
2018-08-06T00:05:07.609Z,19.30
2018-08-06T00:07:36.254Z,19.30
2018-08-06T00:10:07.369Z,19.20
2018-08-06T00:12:35.993Z,19.20
2018-08-06T00:15:06.500Z,19.10
2018-08-06T00:17:35.210Z,19.10
2018-08-06T00:20:04.298Z,19.10
2018-08-06T00:22:32.911Z,19.10
2018-08-06T00:25:01.570Z,19.00
2018-08-06T00:27:30.212Z,18.90
2018-08-06T00:29:58.917Z,18.80
2018-08-06T00:32:27.594Z,18.70
2018-08-06T00:34:56.298Z,18.60
2018-08-06T00:37:24.889Z,18.60
2018-08-06T00:39:53.846Z,18.60
2018-08-06T00:42:22.590Z,18.60
2018-08-06T00:44:51.246Z,18.60
2018-08-06T00:47:19.903Z,18.50
2018-08-06T00:49:48.540Z,18.60
2018-08-06T00:52:17.181Z,18.50
2018-08-06T00:54:45.851Z,18.50
2018-08-06T00:57:14.572Z,18.50
2018-08-06T00:59:43.360Z,18.50
2018-08-06T01:02:12.034Z,18.40
2018-08-06T01:04:40.707Z,18.40
2018-08-06T01:07:09.426Z,18.30
2018-08-06T01:09:38.045Z,18.40
2018-08-06T01:12:06.815Z,18.40
2018-08-06T01:14:35.559Z,18.40
2018-08-06T01:17:04.225Z,18.40
2018-08-06T01:19:32.903Z,18.40
2018-08-06T01:22:01.544Z,18.40
2018-08-06T01:24:30.166Z,18.40
2018-08-06T01:26:58.863Z,18.40
2018-08-06T01:29:27.573Z,18.30
2018-08-06T01:31:56.171Z,18.30
2018-08-06T01:34:24.871Z,18.20
2018-08-06T01:36:53.529Z,18.10
2018-08-06T01:39:22.190Z,18.00
2018-08-06T01:41:50.850Z,17.90
2018-08-06T01:44:19.462Z,17.80
2018-08-06T01:46:48.047Z,17.80
2018-08-06T01:49:16.551Z,17.70
2018-08-06T01:51:45.202Z,17.80
2018-08-06T01:54:13.947Z,17.80
2018-08-06T01:56:42.585Z,17.80
2018-08-06T01:59:11.255Z,17.70
2018-08-06T02:01:39.812Z,17.70
2018-08-06T02:04:08.411Z,17.60
2018-08-06T02:06:37.071Z,17.50
2018-08-06T02:09:07.307Z,17.40
2018-08-06T02:11:36.034Z,17.30
2018-08-06T02:14:04.973Z,17.30
2018-08-06T02:16:33.750Z,17.20
2018-08-06T02:19:02.411Z,17.20
2018-08-06T02:21:31.079Z,17.20
2018-08-06T02:23:59.709Z,17.20
2018-08-06T02:26:28.349Z,17.20
2018-08-06T02:28:57.049Z,17.30
2018-08-06T02:31:25.803Z,17.30
2018-08-06T02:33:54.527Z,17.30
2018-08-06T02:36:23.087Z,17.30
2018-08-06T02:38:51.641Z,17.30
2018-08-06T02:41:20.314Z,17.30
2018-08-06T02:43:49.035Z,17.20
2018-08-06T02:46:17.678Z,17.10
2018-08-06T02:48:46.216Z,17.10
2018-08-06T02:51:14.819Z,17.10
2018-08-06T02:53:43.443Z,17.10
2018-08-06T02:56:12.074Z,17.10
2018-08-06T02:58:40.731Z,17.10
2018-08-06T03:01:09.336Z,17.00
2018-08-06T03:03:37.951Z,17.00
2018-08-06T03:06:07.192Z,16.90
2018-08-06T03:08:35.779Z,16.80
2018-08-06T03:11:04.478Z,16.80
2018-08-06T03:13:33.166Z,16.80
2018-08-06T03:16:01.774Z,16.90
2018-08-06T03:18:30.373Z,16.90
2018-08-06T03:20:59.001Z,16.90
2018-08-06T03:23:27.619Z,16.90
2018-08-06T03:25:56.244Z,16.90
2018-08-06T03:28:24.899Z,16.80
2018-08-06T03:30:53.627Z,16.70
2018-08-06T03:33:22.266Z,16.80
2018-08-06T03:35:50.889Z,16.80
2018-08-06T03:38:19.602Z,16.80
2018-08-06T03:40:48.279Z,16.80
2018-08-06T03:43:16.904Z,16.80
2018-08-06T03:45:45.600Z,16.90
2018-08-06T03:48:14.297Z,16.80
2018-08-06T03:50:42.981Z,16.70
2018-08-06T03:53:11.682Z,16.70
2018-08-06T03:55:40.294Z,16.70
2018-08-06T03:58:09.018Z,16.60
2018-08-06T04:00:37.626Z,16.40
2018-08-06T04:03:06.328Z,16.40
2018-08-06T04:05:35.010Z,16.40
2018-08-06T04:08:03.678Z,16.40
2018-08-06T04:10:32.256Z,16.50
2018-08-06T04:13:00.852Z,16.40
2018-08-06T04:15:29.477Z,16.30
2018-08-06T04:17:58.131Z,16.40
2018-08-06T04:20:26.744Z,16.30
2018-08-06T04:22:55.349Z,16.30
2018-08-06T04:25:23.816Z,16.40
2018-08-06T04:27:52.554Z,16.50
2018-08-06T04:30:21.263Z,16.60
2018-08-06T04:32:49.922Z,16.60
2018-08-06T04:35:18.623Z,16.60
2018-08-06T04:37:47.283Z,16.60
2018-08-06T04:40:15.960Z,16.60
2018-08-06T04:42:44.662Z,16.70
2018-08-06T04:45:13.453Z,16.80
2018-08-06T04:47:42.551Z,16.80
2018-08-06T04:50:13.003Z,16.90
2018-08-06T04:52:41.627Z,16.90
2018-08-06T04:55:12.264Z,16.90
2018-08-06T04:57:41.168Z,16.80
2018-08-06T05:00:11.883Z,16.80
2018-08-06T05:02:40.810Z,16.80
2018-08-06T05:05:10.631Z,16.80
2018-08-06T05:07:39.347Z,16.90
2018-08-06T05:10:07.999Z,17.00
2018-08-06T05:12:36.746Z,17.10
2018-08-06T05:15:05.910Z,17.20
2018-08-06T05:17:34.662Z,17.30
2018-08-06T05:20:03.325Z,17.40
2018-08-06T05:22:32.027Z,17.50
2018-08-06T05:25:00.694Z,17.50
2018-08-06T05:27:38.992Z,17.60
2018-08-06T05:30:09.546Z,17.80
2018-08-06T05:32:38.264Z,17.90
2018-08-06T05:35:07.092Z,18.00
2018-08-06T05:37:35.850Z,18.20
2018-08-06T05:40:05.122Z,18.40
2018-08-06T05:42:33.871Z,18.60
2018-08-06T05:45:02.603Z,18.70
2018-08-06T05:47:31.224Z,18.90
2018-08-06T05:49:59.874Z,19.10
2018-08-06T05:52:28.497Z,19.30
2018-08-06T05:54:57.158Z,19.40
2018-08-06T05:57:25.773Z,19.60
2018-08-06T05:59:54.489Z,19.80
2018-08-06T06:02:23.176Z,19.90
2018-08-06T06:04:51.799Z,20.10
2018-08-06T06:07:20.509Z,20.20
2018-08-06T06:09:49.191Z,20.40
2018-08-06T06:12:17.844Z,20.50
2018-08-06T06:14:46.475Z,20.60
2018-08-06T06:17:15.075Z,20.80
2018-08-06T06:19:43.736Z,21.00
2018-08-06T06:22:12.344Z,21.10
2018-08-06T06:24:41.000Z,21.30
2018-08-06T06:27:09.690Z,21.50
2018-08-06T06:29:38.339Z,21.60
2018-08-06T06:32:07.100Z,21.70
2018-08-06T06:34:35.849Z,21.80
2018-08-06T06:37:04.434Z,21.90
2018-08-06T06:39:32.995Z,22.10
2018-08-06T06:42:01.655Z,22.30
2018-08-06T06:44:30.335Z,22.40
2018-08-06T06:46:58.973Z,22.60
2018-08-06T06:49:27.544Z,22.70
2018-08-06T06:51:56.137Z,22.90
2018-08-06T06:54:24.734Z,23.10
2018-08-06T06:56:53.321Z,23.20
2018-08-06T06:59:38.872Z,23.40
2018-08-06T07:02:07.522Z,23.60
2018-08-06T07:04:36.529Z,23.90
2018-08-06T07:07:17.338Z,24.10
2018-08-06T07:09:45.952Z,24.40
2018-08-06T07:12:14.573Z,24.60
2018-08-06T07:14:43.288Z,24.90
2018-08-06T07:17:13.133Z,25.20
2018-08-06T07:19:42.653Z,25.50
2018-08-06T07:22:18.257Z,25.80
2018-08-06T07:24:48.287Z,26.10
2018-08-06T07:27:18.183Z,26.20
2018-08-06T07:29:48.726Z,26.30
2018-08-06T07:32:18.934Z,26.40
2018-08-06T07:34:49.831Z,26.80
2018-08-06T07:37:18.949Z,27.00
2018-08-06T07:39:48.267Z,27.20
2018-08-06T07:42:16.921Z,27.40
2018-08-06T07:44:49.242Z,27.70
2018-08-06T07:47:17.851Z,27.80
2018-08-06T07:49:46.531Z,28.10
2018-08-06T07:52:15.163Z,28.20
2018-08-06T07:54:43.715Z,28.40
2018-08-06T07:57:12.339Z,28.80
2018-08-06T07:59:40.995Z,29.00
2018-08-06T08:02:09.560Z,29.20
2018-08-06T08:04:38.267Z,29.20
2018-08-06T08:07:08.078Z,29.20
2018-08-06T08:09:37.825Z,29.20
2018-08-06T08:12:20.570Z,29.50
2018-08-06T08:14:50.011Z,29.80
2018-08-06T08:17:19.786Z,30.30
2018-08-06T08:20:06.737Z,30.60
2018-08-06T08:22:35.219Z,31.00
2018-08-06T08:25:03.859Z,31.10
2018-08-06T08:27:32.450Z,31.30
2018-08-06T08:30:01.088Z,31.50
2018-08-06T08:32:29.765Z,31.60
2018-08-06T08:34:58.382Z,31.50
2018-08-06T08:37:27.107Z,31.40
2018-08-06T08:39:55.793Z,31.50
2018-08-06T08:42:24.835Z,31.40
2018-08-06T08:44:53.708Z,31.40
2018-08-06T08:47:22.432Z,31.60
2018-08-06T08:49:51.139Z,31.80
2018-08-06T08:52:20.015Z,32.20
2018-08-06T08:54:48.869Z,32.50
2018-08-06T08:57:17.623Z,32.60
2018-08-06T08:59:46.231Z,32.80
2018-08-06T09:02:15.114Z,33.00
2018-08-06T09:04:43.754Z,33.30
2018-08-06T09:07:12.384Z,33.40
2018-08-06T09:09:41.627Z,33.50
2018-08-06T09:12:11.610Z,33.90
2018-08-06T09:14:40.655Z,34.30
2018-08-06T09:17:09.552Z,34.60
2018-08-06T09:19:38.627Z,34.90
2018-08-06T09:22:09.489Z,34.90
2018-08-06T09:24:38.897Z,34.70
2018-08-06T09:27:09.386Z,34.90
2018-08-06T09:29:39.358Z,34.80
2018-08-06T09:32:08.474Z,34.90
2018-08-06T09:34:37.442Z,34.90
2018-08-06T09:37:07.001Z,34.90
2018-08-06T09:39:36.268Z,35.10
2018-08-06T09:42:07.987Z,35.40
2018-08-06T09:44:36.814Z,35.50
2018-08-06T09:47:06.589Z,35.60
2018-08-06T09:49:35.549Z,35.70
2018-08-06T09:52:04.374Z,36.00
2018-08-06T09:54:33.373Z,36.40
2018-08-06T09:57:03.095Z,36.70
2018-08-06T09:59:31.895Z,36.60
2018-08-06T10:02:00.758Z,36.70
2018-08-06T10:04:30.052Z,36.40
2018-08-06T10:07:00.622Z,36.60
2018-08-06T10:09:29.576Z,36.60
2018-08-06T10:11:58.368Z,36.90
2018-08-06T10:14:27.857Z,37.00
2018-08-06T10:16:57.990Z,37.30
2018-08-06T10:19:27.009Z,37.70
2018-08-06T10:21:55.842Z,38.00
2018-08-06T10:24:24.837Z,38.10
2018-08-06T10:26:57.622Z,38.30
2018-08-06T10:29:28.320Z,38.80
2018-08-06T10:31:57.370Z,39.30
2018-08-06T10:34:28.792Z,39.20
2018-08-06T10:36:57.566Z,39.10
2018-08-06T10:39:27.621Z,39.00
2018-08-06T10:41:56.672Z,39.10
2018-08-06T10:44:25.838Z,39.10
2018-08-06T10:46:55.869Z,39.10
2018-08-06T10:49:25.996Z,39.10
2018-08-06T10:52:00.960Z,39.30
2018-08-06T10:54:29.813Z,39.70
2018-08-06T10:56:58.975Z,39.90
2018-08-06T10:59:28.479Z,40.00
2018-08-06T11:01:58.022Z,40.30
2018-08-06T11:04:26.836Z,40.40
2018-08-06T11:06:55.386Z,40.30
2018-08-06T11:09:24.092Z,40.50
2018-08-06T11:11:52.770Z,40.50
2018-08-06T11:14:21.577Z,40.50
2018-08-06T11:16:50.406Z,40.60
2018-08-06T11:19:19.193Z,40.60
2018-08-06T11:21:47.776Z,40.70
2018-08-06T11:24:16.497Z,40.60
2018-08-06T11:26:45.445Z,40.40
2018-08-06T11:29:14.146Z,40.50
2018-08-06T11:31:42.711Z,40.80
2018-08-06T11:34:11.390Z,41.10
2018-08-06T11:36:40.007Z,41.30
2018-08-06T11:39:10.180Z,41.60
2018-08-06T11:41:38.786Z,41.60
2018-08-06T11:44:07.594Z,41.50
2018-08-06T11:46:36.343Z,41.10
2018-08-06T11:49:05.165Z,40.90
2018-08-06T11:51:33.802Z,40.70
2018-08-06T11:54:02.333Z,40.70
2018-08-06T11:56:31.001Z,40.80
2018-08-06T11:59:01.588Z,40.60
2018-08-06T12:01:30.142Z,40.30
2018-08-06T12:03:58.674Z,40.70
2018-08-06T12:06:41.642Z,40.80
2018-08-06T12:09:10.422Z,40.50
2018-08-06T12:11:39.633Z,40.20
2018-08-06T12:14:08.204Z,39.60
2018-08-06T12:16:36.778Z,39.90
2018-08-06T12:19:05.354Z,40.40
2018-08-06T12:21:33.904Z,40.90
2018-08-06T12:24:02.466Z,41.50
2018-08-06T12:26:31.008Z,42.00
2018-08-06T12:28:59.583Z,42.40
2018-08-06T12:31:28.236Z,42.70
2018-08-06T12:33:58.825Z,42.90
2018-08-06T12:36:27.365Z,42.80
2018-08-06T12:39:03.486Z,42.60
2018-08-06T12:41:32.030Z,42.10
2018-08-06T12:44:00.529Z,41.90
2018-08-06T12:46:29.126Z,42.10
2018-08-06T12:48:57.741Z,42.20
2018-08-06T12:51:26.361Z,42.40
2018-08-06T12:53:55.337Z,42.50
2018-08-06T12:56:24.107Z,42.50
2018-08-06T12:58:52.838Z,42.40
2018-08-06T13:01:21.411Z,42.80
2018-08-06T13:03:50.130Z,43.30
2018-08-06T13:06:18.787Z,43.20
2018-08-06T13:08:47.316Z,43.30
2018-08-06T13:11:16.221Z,43.50
2018-08-06T13:13:44.768Z,43.70
2018-08-06T13:16:13.308Z,44.00
2018-08-06T13:18:41.877Z,44.30
2018-08-06T13:21:10.431Z,44.60
2018-08-06T13:23:44.205Z,45.10
2018-08-06T13:26:12.959Z,45.70
2018-08-06T13:28:41.784Z,46.40
2018-08-06T13:31:10.659Z,47.00
2018-08-06T13:33:39.520Z,47.50
2018-08-06T13:36:08.307Z,48.30
2018-08-06T13:38:37.042Z,49.20
2018-08-06T13:41:05.832Z,49.90
2018-08-06T13:43:34.605Z,50.40
2018-08-06T13:46:03.416Z,49.60
2018-08-06T13:48:32.249Z,49.60
2018-08-06T13:51:01.040Z,50.20
2018-08-06T13:53:29.931Z,51.40
2018-08-06T13:55:58.818Z,51.90
2018-08-06T13:58:27.607Z,52.40
2018-08-06T14:00:56.470Z,52.50
2018-08-06T14:03:25.325Z,52.60
2018-08-06T14:05:54.207Z,52.80
2018-08-06T14:08:23.080Z,53.10
2018-08-06T14:10:51.945Z,53.50
2018-08-06T14:13:20.806Z,53.60
2018-08-06T14:15:49.347Z,53.60
2018-08-06T14:18:18.035Z,53.40
2018-08-06T14:20:46.678Z,53.20
2018-08-06T14:23:15.262Z,53.20
2018-08-06T14:25:43.787Z,53.50
2018-08-06T14:28:12.350Z,53.80
2018-08-06T14:30:40.924Z,54.00
2018-08-06T14:33:09.498Z,53.80
2018-08-06T14:35:38.077Z,53.60
2018-08-06T14:38:06.660Z,52.50
2018-08-06T14:40:36.570Z,51.20
2018-08-06T14:43:05.244Z,51.20
2018-08-06T14:45:33.767Z,51.40
2018-08-06T14:48:02.375Z,51.30
2018-08-06T14:50:30.873Z,51.00
2018-08-06T14:52:59.475Z,49.40
2018-08-06T14:55:28.034Z,48.10
2018-08-06T14:57:56.634Z,48.00
2018-08-06T15:00:25.220Z,48.60
2018-08-06T15:02:54.142Z,49.60
2018-08-06T15:05:22.763Z,50.30
2018-08-06T15:07:51.389Z,49.70
2018-08-06T15:10:19.969Z,47.90
2018-08-06T15:12:48.627Z,46.60
2018-08-06T15:15:18.062Z,44.40
2018-08-06T15:17:47.023Z,43.40
2018-08-06T15:20:16.803Z,43.80
2018-08-06T15:22:45.730Z,44.10
2018-08-06T15:25:17.914Z,44.40
2018-08-06T15:27:46.796Z,45.10
2018-08-06T15:30:15.536Z,46.00
2018-08-06T15:32:44.123Z,46.30
2018-08-06T15:35:13.280Z,45.80
2018-08-06T15:37:42.822Z,45.40
2018-08-06T15:40:13.813Z,44.60
2018-08-06T15:42:42.705Z,43.80
2018-08-06T15:45:12.145Z,43.60
2018-08-06T15:47:41.431Z,44.20
2018-08-06T15:50:12.063Z,45.10
2018-08-06T15:52:40.610Z,45.00
2018-08-06T15:55:09.543Z,44.70
2018-08-06T15:57:38.144Z,45.10
2018-08-06T16:00:08.813Z,44.70
2018-08-06T16:02:37.269Z,44.10
2018-08-06T16:05:06.698Z,42.80
2018-08-06T16:07:35.194Z,41.60
2018-08-06T16:10:03.711Z,41.20
2018-08-06T16:12:32.493Z,40.90
2018-08-06T16:15:01.016Z,40.40
2018-08-06T16:17:29.488Z,40.90
2018-08-06T16:19:57.946Z,42.10
2018-08-06T16:22:26.372Z,43.50
2018-08-06T16:24:54.873Z,44.20
2018-08-06T16:27:23.342Z,44.60
2018-08-06T16:29:51.833Z,45.70
2018-08-06T16:32:20.424Z,46.90
2018-08-06T16:34:48.879Z,47.60
2018-08-06T16:37:17.461Z,48.30
2018-08-06T16:39:45.904Z,48.60
2018-08-06T16:42:14.325Z,47.40
2018-08-06T16:44:42.756Z,46.70
2018-08-06T16:47:11.213Z,45.70
2018-08-06T16:49:39.661Z,45.80
2018-08-06T16:52:08.250Z,46.00
2018-08-06T16:54:36.747Z,46.30
2018-08-06T16:57:05.318Z,46.60
2018-08-06T16:59:33.899Z,47.00
2018-08-06T17:02:02.474Z,47.30
2018-08-06T17:04:31.151Z,47.60
2018-08-06T17:06:59.669Z,48.00
2018-08-06T17:09:28.237Z,47.10
2018-08-06T17:11:56.849Z,46.10
2018-08-06T17:14:25.455Z,45.60
2018-08-06T17:16:54.090Z,45.20
2018-08-06T17:19:22.705Z,44.60
2018-08-06T17:21:51.318Z,44.00
2018-08-06T17:24:19.825Z,43.30
2018-08-06T17:26:48.414Z,43.00
2018-08-06T17:29:16.931Z,42.90
2018-08-06T17:31:45.501Z,42.60
2018-08-06T17:34:14.098Z,42.60
2018-08-06T17:36:42.691Z,42.90
2018-08-06T17:39:11.901Z,43.30
2018-08-06T17:41:40.722Z,43.40
2018-08-06T17:44:09.445Z,43.30
2018-08-06T17:46:38.015Z,42.40
2018-08-06T17:49:06.697Z,41.20
2018-08-06T17:51:35.238Z,40.40
2018-08-06T17:54:03.878Z,39.80
2018-08-06T17:56:32.502Z,39.40
2018-08-06T17:59:01.008Z,39.10
2018-08-06T18:01:29.611Z,38.90
2018-08-06T18:03:58.167Z,39.30
2018-08-06T18:06:26.702Z,39.60
2018-08-06T18:08:55.306Z,39.00
2018-08-06T18:11:23.924Z,38.30
2018-08-06T18:13:52.454Z,37.30
2018-08-06T18:16:21.091Z,36.80
2018-08-06T18:18:49.724Z,36.40
2018-08-06T18:21:18.309Z,36.00
2018-08-06T18:23:46.902Z,35.60
2018-08-06T18:26:15.508Z,35.30
2018-08-06T18:28:44.124Z,34.90
2018-08-06T18:31:12.787Z,34.80
2018-08-06T18:33:41.370Z,34.80
2018-08-06T18:36:09.983Z,34.80
2018-08-06T18:38:38.586Z,34.70
2018-08-06T18:41:07.189Z,34.60
2018-08-06T18:43:35.742Z,34.50
2018-08-06T18:46:04.357Z,34.40
2018-08-06T18:48:32.987Z,34.20
2018-08-06T18:51:01.623Z,33.90
2018-08-06T18:53:30.230Z,33.60
2018-08-06T18:55:58.904Z,33.40
2018-08-06T18:58:27.518Z,33.20
2018-08-06T19:00:56.096Z,33.00
2018-08-06T19:03:24.781Z,32.90
2018-08-06T19:05:53.375Z,32.70
2018-08-06T19:08:21.985Z,32.50
2018-08-06T19:10:50.506Z,31.90
2018-08-06T19:13:24.349Z,31.30
2018-08-06T19:15:52.955Z,30.90
2018-08-06T19:18:26.911Z,30.40
2018-08-06T19:20:55.523Z,30.10
2018-08-06T19:23:24.171Z,29.80
2018-08-06T19:25:52.807Z,29.50
2018-08-06T19:28:21.425Z,29.50
2018-08-06T19:30:55.190Z,29.60
2018-08-06T19:33:23.767Z,29.70
2018-08-06T19:35:52.422Z,29.70
2018-08-06T19:38:21.119Z,29.70
2018-08-06T19:40:49.691Z,29.80
2018-08-06T19:43:23.393Z,29.80
2018-08-06T19:46:00.786Z,29.70
2018-08-06T19:48:29.480Z,29.70
2018-08-06T19:50:58.077Z,29.70
2018-08-06T19:53:26.761Z,29.70
2018-08-06T19:56:00.512Z,29.60
2018-08-06T19:58:29.062Z,29.40
2018-08-06T20:00:57.689Z,29.00
2018-08-06T20:03:26.342Z,28.70
2018-08-06T20:05:54.897Z,28.50
2018-08-06T20:08:23.474Z,28.40
2018-08-06T20:10:52.259Z,28.30
2018-08-06T20:13:20.943Z,28.30
2018-08-06T20:15:49.572Z,28.30
2018-08-06T20:18:18.275Z,28.40
2018-08-06T20:20:46.867Z,28.40
2018-08-06T20:23:15.717Z,28.40
2018-08-06T20:25:44.364Z,28.30
2018-08-06T20:28:13.042Z,28.30
2018-08-06T20:30:41.719Z,28.20
2018-08-06T20:33:10.375Z,28.10
2018-08-06T20:35:39.015Z,28.00
2018-08-06T20:38:07.734Z,27.90
2018-08-06T20:40:36.400Z,27.90
2018-08-06T20:43:04.973Z,27.80
2018-08-06T20:45:33.601Z,27.70
2018-08-06T20:48:02.313Z,27.70
2018-08-06T20:50:30.888Z,27.60
2018-08-06T20:52:59.612Z,27.50
2018-08-06T20:55:28.186Z,27.40
2018-08-06T20:57:56.759Z,27.30
2018-08-06T21:00:26.158Z,27.20
2018-08-06T21:02:54.928Z,27.00
2018-08-06T21:05:23.468Z,27.00
2018-08-06T21:07:51.998Z,27.00
2018-08-06T21:10:21.071Z,27.00
2018-08-06T21:12:49.986Z,26.90
2018-08-06T21:15:18.777Z,26.80
2018-08-06T21:17:47.402Z,26.70
2018-08-06T21:20:18.235Z,26.60
2018-08-06T21:22:48.019Z,26.60
2018-08-06T21:25:16.909Z,26.50
2018-08-06T21:27:46.706Z,26.50
2018-08-06T21:30:16.893Z,26.40
2018-08-06T21:32:50.408Z,26.20
2018-08-06T21:35:20.088Z,25.90
2018-08-06T21:37:49.844Z,25.70
2018-08-06T21:40:19.146Z,25.50
2018-08-06T21:42:48.106Z,25.40
2018-08-06T21:45:16.832Z,25.30
2018-08-06T21:47:45.598Z,25.20
2018-08-06T21:50:14.748Z,25.20
2018-08-06T21:52:43.377Z,25.30
2018-08-06T21:55:12.206Z,25.30
2018-08-06T21:57:40.854Z,25.20
2018-08-06T22:00:19.347Z,25.00
2018-08-06T22:02:47.870Z,24.90
2018-08-06T22:05:16.491Z,24.80
2018-08-06T22:07:45.174Z,24.60
2018-08-06T22:10:13.951Z,24.60
2018-08-06T22:12:42.572Z,24.60
2018-08-06T22:15:11.270Z,24.70
2018-08-06T22:17:39.874Z,24.70
2018-08-06T22:20:08.426Z,24.60
2018-08-06T22:22:37.030Z,24.60
2018-08-06T22:25:05.711Z,24.60
2018-08-06T22:27:34.394Z,24.60
2018-08-06T22:30:03.066Z,24.50
2018-08-06T22:32:31.721Z,24.50
2018-08-06T22:35:00.371Z,24.50
2018-08-06T22:37:29.024Z,24.40
2018-08-06T22:39:57.593Z,24.40
2018-08-06T22:42:26.261Z,24.40
2018-08-06T22:44:54.878Z,24.30
2018-08-06T22:47:23.473Z,24.20
2018-08-06T22:49:52.103Z,24.20
2018-08-06T22:52:20.736Z,24.00
2018-08-06T22:54:49.502Z,23.80
2018-08-06T22:57:18.207Z,23.50
2018-08-06T22:59:46.827Z,23.30
2018-08-06T23:02:15.392Z,23.20
2018-08-06T23:04:44.090Z,23.20
2018-08-06T23:07:12.730Z,23.20
2018-08-06T23:09:41.296Z,23.20
2018-08-06T23:12:10.004Z,23.20
2018-08-06T23:14:38.565Z,23.20
2018-08-06T23:17:07.216Z,23.20
2018-08-06T23:19:35.848Z,23.10
2018-08-06T23:22:04.541Z,23.10
2018-08-06T23:24:33.094Z,23.00
2018-08-06T23:27:01.734Z,23.00
2018-08-06T23:29:30.345Z,23.00
2018-08-06T23:31:58.995Z,23.00
2018-08-06T23:34:27.562Z,22.90
2018-08-06T23:36:56.155Z,22.80
2018-08-06T23:39:24.762Z,22.80
2018-08-06T23:41:53.365Z,22.80
2018-08-06T23:44:21.983Z,22.80
2018-08-06T23:46:50.585Z,22.70
2018-08-06T23:49:19.279Z,22.50
2018-08-06T23:51:47.893Z,22.50
2018-08-06T23:54:16.539Z,22.50
2018-08-06T23:56:45.116Z,22.50
2018-08-06T23:59:13.767Z,22.50
